Time;durP1;ratioP1;P1;durP2;ratioP2;P2;SDS_P1;SDS_P2;PMS_P1;PMS_P2;Temp;Humidity;BMP_temperature;BMP_pressure;BME280_temperature;BME280_humidity;BME280_pressure;Samples;Min_cycle;Max_cycle;Signal;HPM_P1;HPM_P2
2022/06/21 00:00:26;;;;;;;13.70;2.95;;;12.00;85.90;;;;;;5102641;27;20351;-45
2022/06/21 00:02:58;;;;;;;8.18;2.13;;;12.10;86.20;;;;;;5131436;27;20034;-44
2022/06/21 00:05:31;;;;;;;5.90;2.38;;;12.10;86.40;;;;;;5111616;27;20023;-43
2022/06/21 00:07:59;;;;;;;14.10;2.90;;;12.20;86.30;;;;;;5111010;28;20024;-46
2022/06/21 00:10:24;;;;;;;9.45;2.75;;;12.20;86.00;;;;;;5110948;28;20070;-44
2022/06/21 00:12:50;;;;;;;7.30;2.70;;;12.20;86.00;;;;;;5110876;28;20543;-45
2022/06/21 00:15:16;;;;;;;8.85;2.97;;;12.20;86.00;;;;;;5109306;27;20027;-45
2022/06/21 00:17:46;;;;;;;9.82;2.97;;;12.30;86.00;;;;;;5092654;28;20577;-44
2022/06/21 00:20:18;;;;;;;7.65;2.83;;;12.30;85.80;;;;;;5110480;27;20074;-43
2022/06/21 00:22:44;;;;;;;9.52;2.78;;;12.30;85.90;;;;;;5123923;27;20027;-43
2022/06/21 00:25:27;;;;;;;11.07;3.60;;;12.40;85.90;;;;;;5111769;27;20076;-44
2022/06/21 00:27:55;;;;;;;11.85;2.83;;;12.40;85.90;;;;;;5131346;27;20047;-43
2022/06/21 00:30:22;;;;;;;7.65;2.00;;;12.40;85.70;;;;;;5102654;28;20038;-45
2022/06/21 00:32:52;;;;;;;9.40;2.42;;;12.40;85.90;;;;;;5123931;27;20027;-44
2022/06/21 00:35:20;;;;;;;12.18;3.28;;;12.50;85.90;;;;;;5113847;27;20032;-45
2022/06/21 00:37:47;;;;;;;10.00;3.17;;;12.50;85.80;;;;;;5110050;28;20035;-43
2022/06/21 00:40:21;;;;;;;8.85;2.70;;;12.50;85.50;;;;;;5109957;27;20103;-44
2022/06/21 00:43:00;;;;;;;8.30;2.65;;;12.50;85.50;;;;;;5109882;28;20452;-43
2022/06/21 00:45:38;;;;;;;12.25;2.58;;;12.60;85.60;;;;;;5110189;27;20027;-45
2022/06/21 00:48:25;;;;;;;12.73;2.42;;;12.70;85.50;;;;;;5110321;28;20604;-44
2022/06/21 00:50:56;;;;;;;11.65;3.15;;;12.80;85.40;;;;;;5091331;28;20080;-43
2022/06/21 00:53:32;;;;;;;7.30;2.95;;;12.80;85.20;;;;;;5109806;28;20039;-43
2022/06/21 00:55:57;;;;;;;12.43;3.22;;;12.80;85.20;;;;;;5109720;28;20027;-44
2022/06/21 00:58:30;;;;;;;8.65;2.72;;;12.80;85.00;;;;;;5109967;28;20547;-44
2022/06/21 01:01:20;;;;;;;7.43;2.22;;;12.90;85.00;;;;;;5097551;28;20055;-44
2022/06/21 01:03:52;;;;;;;9.68;2.10;;;12.90;84.90;;;;;;5110191;28;20024;-43
2022/06/21 01:06:37;;;;;;;8.00;2.40;;;12.90;84.70;;;;;;5116885;27;20061;-45
2022/06/21 01:09:07;;;;;;;7.25;3.22;;;12.90;84.80;;;;;;5112275;27;20031;-46
2022/06/21 01:11:40;;;;;;;10.80;3.40;;;12.90;84.70;;;;;;5115696;27;20037;-44
2022/06/21 01:14:09;;;;;;;10.90;2.50;;;12.90;84.40;;;;;;5109965;28;20031;-45
2022/06/21 01:16:39;;;;;;;8.13;2.28;;;12.90;84.30;;;;;;5109551;28;20072;-45
2022/06/21 01:19:14;;;;;;;12.77;2.83;;;12.90;84.20;;;;;;5109269;28;20515;-46
2022/06/21 01:21:46;;;;;;;10.35;2.42;;;12.90;84.10;;;;;;5127637;27;20027;-45
2022/06/21 01:25:07;;;;;;;6.97;2.38;;;12.90;84.20;;;;;;5128074;27;20425;-43
2022/06/21 01:27:36;;;;;;;13.00;3.65;;;13.00;84.20;;;;;;5006305;28;20523;-45
2022/06/21 01:30:03;;;;;;;16.98;2.60;;;13.00;84.10;;;;;;4992318;28;20463;-44
2022/06/21 01:32:29;;;;;;;9.70;2.80;;;12.90;84.20;;;;;;5018696;28;20041;-45
2022/06/21 01:34:55;;;;;;;8.88;2.22;;;12.90;84.10;;;;;;4991029;28;20069;-45
2022/06/21 01:37:28;;;;;;;8.35;2.08;;;12.90;84.10;;;;;;5001492;28;20073;-45
2022/06/21 01:40:03;;;;;;;11.57;4.30;;;12.90;84.20;;;;;;5026421;28;20060;-45
2022/06/21 01:42:53;;;;;;;6.90;1.73;;;12.90;84.50;;;;;;5010707;28;20025;-46
2022/06/21 01:45:26;;;;;;;6.97;2.08;;;12.90;84.20;;;;;;5009711;28;20494;-44
2022/06/21 01:48:00;;;;;;;8.95;2.25;;;12.90;84.10;;;;;;5027024;28;20044;-44
2022/06/21 01:50:26;;;;;;;11.88;2.38;;;12.80;83.60;;;;;;5009733;28;20124;-45
2022/06/21 01:52:55;;;;;;;10.77;2.50;;;12.80;83.60;;;;;;5009597;28;20944;-44
2022/06/21 01:55:30;;;;;;;7.53;2.30;;;12.90;83.30;;;;;;5026866;28;20041;-44
2022/06/21 01:58:00;;;;;;;9.90;2.63;;;12.90;82.90;;;;;;5040429;28;20067;-46
2022/06/21 02:00:27;;;;;;;14.35;3.95;;;12.90;82.70;;;;;;5108524;28;20368;-46
2022/06/21 02:02:57;;;;;;;10.45;2.10;;;13.00;82.70;;;;;;5117982;28;20466;-46
2022/06/21 02:05:33;;;;;;;6.57;1.83;;;13.00;82.70;;;;;;5098770;28;20509;-44
2022/06/21 02:08:05;;;;;;;10.35;2.40;;;13.00;82.50;;;;;;5108217;28;20563;-44
2022/06/21 02:10:36;;;;;;;8.15;2.20;;;13.00;82.60;;;;;;5096752;28;20046;-49
2022/06/21 02:13:18;;;;;;;10.13;3.08;;;12.90;82.60;;;;;;5130024;28;20043;-46
2022/06/21 02:15:53;;;;;;;13.55;2.92;;;13.00;82.60;;;;;;5120118;28;20046;-46
2022/06/21 02:18:20;;;;;;;11.15;2.38;;;13.00;82.60;;;;;;5129630;28;20448;-45
2022/06/21 02:20:49;;;;;;;10.38;3.00;;;13.00;82.70;;;;;;5111621;28;20114;-46
2022/06/21 02:23:18;;;;;;;10.82;2.53;;;13.00;82.90;;;;;;5109227;28;20031;-45
2022/06/21 02:25:44;;;;;;;10.52;3.17;;;13.00;82.70;;;;;;5108976;28;20019;-48
2022/06/21 02:28:14;;;;;;;9.00;2.17;;;13.00;82.70;;;;;;5109181;28;20027;-47
2022/06/21 02:30:41;;;;;;;12.25;2.75;;;13.00;82.70;;;;;;5090932;28;20023;-45
2022/06/21 02:33:13;;;;;;;8.05;2.42;;;13.00;82.70;;;;;;5109406;28;20035;-47
2022/06/21 02:35:42;;;;;;;10.98;2.63;;;13.00;82.60;;;;;;5090852;28;20023;-46
2022/06/21 02:38:16;;;;;;;7.35;2.72;;;13.00;82.90;;;;;;5092341;28;20031;-48
2022/06/21 02:40:45;;;;;;;9.25;2.65;;;13.10;82.90;;;;;;5123266;27;20038;-44
2022/06/21 02:43:17;;;;;;;8.60;2.20;;;13.10;82.90;;;;;;5133343;27;20035;-44
2022/06/21 02:46:08;;;;;;;4.95;2.03;;;13.00;83.10;;;;;;5100718;28;20036;-45
2022/06/21 02:48:42;;;;;;;10.35;2.83;;;12.90;83.20;;;;;;5112830;28;20035;-44
2022/06/21 02:51:12;;;;;;;8.73;2.85;;;12.90;83.50;;;;;;5127929;27;20023;-44
2022/06/21 02:53:49;;;;;;;9.73;2.75;;;12.80;83.70;;;;;;5114976;27;20061;-44
2022/06/21 02:56:26;;;;;;;11.98;2.60;;;12.70;83.60;;;;;;5110275;28;20089;-46
2022/06/21 02:58:57;;;;;;;6.97;2.40;;;12.70;84.00;;;;;;5112444;28;20059;-48
2022/06/21 03:01:39;;;;;;;15.88;4.30;;;12.60;83.90;;;;;;5094019;28;20072;-46
2022/06/21 03:04:07;;;;;;;9.38;2.88;;;12.60;83.90;;;;;;5112315;28;20028;-45
2022/06/21 03:06:33;;;;;;;8.38;2.50;;;12.50;83.40;;;;;;5124180;27;20484;-46
2022/06/21 03:09:10;;;;;;;5.88;2.10;;;12.50;83.50;;;;;;5112350;27;20127;-44
2022/06/21 03:11:39;;;;;;;12.05;2.30;;;12.50;83.50;;;;;;5128950;27;20474;-44
2022/06/21 03:14:19;;;;;;;9.40;2.20;;;12.40;83.50;;;;;;5132275;27;20467;-46
2022/06/21 03:16:46;;;;;;;9.38;2.10;;;12.40;83.50;;;;;;5129668;27;20467;-47
2022/06/21 03:19:27;;;;;;;14.10;2.45;;;12.30;83.50;;;;;;5114227;27;20027;-43
2022/06/21 03:21:53;;;;;;;11.02;3.63;;;12.40;83.60;;;;;;5111883;27;20039;-46
2022/06/21 03:24:22;;;;;;;17.15;4.00;;;12.40;83.70;;;;;;5111761;28;20420;-45
2022/06/21 03:27:05;;;;;;;11.27;3.17;;;12.30;83.80;;;;;;5111509;27;20036;-46
2022/06/21 03:29:34;;;;;;;8.35;2.13;;;12.20;83.80;;;;;;5111576;28;20381;-46
2022/06/21 03:32:02;;;;;;;8.25;2.50;;;12.20;84.20;;;;;;5111755;27;20110;-48
2022/06/21 03:34:28;;;;;;;9.45;2.90;;;12.20;84.20;;;;;;5121313;27;20101;-47
2022/06/21 03:36:58;;;;;;;8.77;2.60;;;12.20;84.30;;;;;;5092689;28;20023;-45
2022/06/21 03:42:14;;;;;;;6.00;2.45;;;12.20;84.30;;;;;;5132143;27;20038;-44
2022/06/21 03:45:03;;;;;;;5.65;2.00;;;12.20;84.40;;;;;;5095857;27;20363;-46
2022/06/21 03:47:37;;;;;;;6.00;1.77;;;12.30;84.50;;;;;;5093339;28;20464;-45
2022/06/21 03:50:07;;;;;;;9.00;2.38;;;12.40;84.50;;;;;;5109634;28;20044;-45
2022/06/21 03:52:41;;;;;;;10.00;2.83;;;12.40;84.40;;;;;;5111619;28;20497;-47
2022/06/21 03:55:41;;;;;;;7.72;2.72;;;12.40;84.60;;;;;;5110937;27;20492;-45
2022/06/21 03:58:25;;;;;;;;;;;12.50;84.60;;;;;;5053321;28;20048;-45
2022/06/21 04:01:19;;;;;;;7.28;2.58;;;12.60;84.60;;;;;;5127070;27;20336;-48
2022/06/21 04:03:51;;;;;;;7.80;2.08;;;12.70;84.50;;;;;;5131720;27;20051;-43
2022/06/21 04:06:45;;;;;;;8.30;2.80;;;12.80;84.50;;;;;;5092865;27;20024;-44
2022/06/21 04:09:25;;;;;;;8.85;2.35;;;12.90;84.50;;;;;;5111257;28;20035;-44
2022/06/21 04:12:00;;;;;;;7.15;2.58;;;12.90;84.30;;;;;;5113481;27;20038;-46
2022/06/21 04:14:36;;;;;;;8.93;2.75;;;12.90;84.30;;;;;;5109836;27;20036;-43
2022/06/21 04:17:11;;;;;;;8.68;2.75;;;13.00;84.20;;;;;;5092823;28;20024;-44
2022/06/21 04:19:39;;;;;;;7.10;2.42;;;13.10;84.10;;;;;;5110519;28;20106;-44
2022/06/21 04:22:21;;;;;;;11.02;3.00;;;13.20;84.00;;;;;;5092952;28;20020;-47
2022/06/21 04:24:54;;;;;;;7.93;2.20;;;13.10;83.60;;;;;;5096685;27;20482;-43
2022/06/21 04:27:30;;;;;;;11.60;3.15;;;13.20;83.80;;;;;;5130203;27;20038;-47
2022/06/21 04:30:22;;;;;;;8.85;2.80;;;13.10;83.80;;;;;;5125080;27;20028;-44
2022/06/21 04:32:55;;;;;;;9.52;2.72;;;13.20;83.80;;;;;;5103268;27;20133;-47
2022/06/21 04:35:30;;;;;;;8.52;2.50;;;13.20;83.70;;;;;;5118933;27;20038;-46
2022/06/21 04:38:06;;;;;;;9.77;2.60;;;13.20;83.70;;;;;;5110189;28;20077;-44
2022/06/21 04:40:45;;;;;;;9.07;2.53;;;13.30;83.90;;;;;;5093255;28;20058;-45
2022/06/21 04:43:22;;;;;;;13.25;2.90;;;13.30;83.90;;;;;;5110182;28;20028;-45
2022/06/21 04:46:07;;;;;;;6.32;2.45;;;13.40;83.80;;;;;;5110691;27;20148;-45
2022/06/21 04:48:46;;;;;;;5.95;2.20;;;13.50;83.90;;;;;;5109774;28;20114;-46
2022/06/21 04:51:17;;;;;;;9.00;3.22;;;13.70;83.70;;;;;;5110171;28;20098;-49
2022/06/21 04:54:24;;;;;;;6.78;2.50;;;13.80;83.30;;;;;;5091809;28;20048;-48
2022/06/21 04:56:56;;;;;;;8.73;3.33;;;13.90;82.90;;;;;;5053544;28;20460;-49
2022/06/21 04:59:49;;;;;;;7.75;3.05;;;13.90;82.50;;;;;;5113328;27;20036;-48
2022/06/21 05:02:31;;;;;;;11.13;2.28;;;14.00;82.70;;;;;;5128752;27;20459;-45
2022/06/21 05:05:04;;;;;;;7.93;2.65;;;14.30;82.50;;;;;;5121111;27;20025;-47
2022/06/21 05:07:36;;;;;;;10.65;2.60;;;14.40;81.90;;;;;;5109579;27;20031;-45
2022/06/21 05:10:03;;;;;;;6.90;2.65;;;14.40;81.40;;;;;;5092159;28;20046;-47
2022/06/21 05:12:39;;;;;;;6.43;2.03;;;14.30;81.70;;;;;;5110016;27;20037;-45
2022/06/21 05:15:11;;;;;;;6.85;2.80;;;14.40;81.80;;;;;;5109482;28;20106;-45
2022/06/21 05:17:39;;;;;;;7.05;3.00;;;14.40;81.70;;;;;;5109123;27;20019;-44
2022/06/21 05:20:14;;;;;;;12.63;2.50;;;14.50;81.60;;;;;;5092006;28;20038;-45
2022/06/21 05:22:43;;;;;;;7.93;2.90;;;14.60;81.40;;;;;;5110618;28;20015;-44
2022/06/21 05:25:36;;;;;;;6.13;3.00;;;14.60;81.10;;;;;;5129726;27;20023;-49
2022/06/21 05:28:15;;;;;;;6.18;2.45;;;14.60;81.00;;;;;;5102361;28;20318;-45
2022/06/21 05:30:45;;;;;;;8.20;2.80;;;14.60;80.10;;;;;;5108962;28;20031;-43
2022/06/21 05:33:22;;;;;;;6.55;2.30;;;14.70;79.50;;;;;;5096585;28;20031;-45
2022/06/21 05:35:51;;;;;;;7.13;2.45;;;14.70;79.60;;;;;;5092281;28;20035;-44
2022/06/21 05:38:45;;;;;;;6.50;2.13;;;14.70;79.30;;;;;;5091772;28;20070;-45
2022/06/21 05:41:31;;;;;;;7.53;2.53;;;14.50;79.30;;;;;;5109537;28;20031;-45
2022/06/21 05:44:08;;;;;;;10.60;2.63;;;14.50;79.80;;;;;;5109526;28;20471;-46
2022/06/21 05:46:41;;;;;;;6.07;2.17;;;14.50;79.10;;;;;;5109672;28;20118;-45
2022/06/21 05:49:30;;;;;;;8.55;3.25;;;14.60;78.60;;;;;;5095188;28;20380;-45
2022/06/21 05:52:01;;;;;;;4.87;2.27;;;14.60;78.60;;;;;;5116655;28;20452;-46
2022/06/21 05:54:41;;;;;;;7.93;2.50;;;14.50;78.90;;;;;;5101846;28;20051;-44
2022/06/21 05:57:17;;;;;;;7.65;2.67;;;14.40;79.40;;;;;;5109060;28;20078;-45
2022/06/21 05:59:44;;;;;;;8.30;2.75;;;14.20;79.40;;;;;;5093633;28;20051;-45
2022/06/21 06:02:33;;;;;;;5.78;2.50;;;14.10;79.80;;;;;;5092813;28;20356;-45
2022/06/21 06:05:12;;;;;;;8.90;2.58;;;14.20;80.20;;;;;;5121125;28;20024;-45
2022/06/21 06:07:58;;;;;;;7.45;2.50;;;14.50;79.30;;;;;;5091079;28;20508;-44
2022/06/21 06:10:26;;;;;;;12.38;3.22;;;14.90;78.40;;;;;;5108391;28;20112;-45
2022/06/21 06:13:00;;;;;;;7.35;2.30;;;15.30;77.80;;;;;;5121964;27;20031;-45
2022/06/21 06:15:48;;;;;;;5.38;2.15;;;15.60;75.90;;;;;;5122331;27;20042;-45
2022/06/21 06:18:36;;;;;;;9.15;2.78;;;15.90;76.00;;;;;;5116904;27;20026;-47
2022/06/21 06:21:37;;;;;;;5.22;2.30;;;16.20;75.30;;;;;;5100263;28;20087;-46
2022/06/21 06:24:12;;;;;;;7.05;2.05;;;16.80;71.80;;;;;;5094280;27;20459;-44
2022/06/21 06:26:43;;;;;;;5.97;2.65;;;16.90;70.50;;;;;;5127086;27;20027;-47
2022/06/21 06:29:26;;;;;;;8.27;2.47;;;17.00;71.60;;;;;;5127383;27;20034;-46
2022/06/21 06:32:32;;;;;;;8.20;2.25;;;17.10;70.40;;;;;;5113177;28;20592;-44
2022/06/21 06:34:59;;;;;;;6.95;2.70;;;17.00;70.90;;;;;;5127590;27;20035;-45
2022/06/21 06:37:45;;;;;;;4.60;1.77;;;16.90;71.10;;;;;;5127260;27;20029;-45
2022/06/21 06:40:36;;;;;;;8.07;2.40;;;17.00;70.70;;;;;;5112525;27;20038;-47
2022/06/21 06:43:13;;;;;;;6.18;1.52;;;16.90;71.40;;;;;;5104403;28;20042;-45
2022/06/21 06:45:42;;;;;;;7.85;2.97;;;16.90;70.60;;;;;;5112498;28;20024;-45
2022/06/21 06:48:18;;;;;;;10.52;2.10;;;17.10;71.50;;;;;;5112495;28;20364;-45
2022/06/21 06:51:18;;;;;;;7.32;2.47;;;17.20;69.90;;;;;;5094493;28;20027;-44
2022/06/21 06:53:51;;;;;;;5.95;2.70;;;17.20;69.50;;;;;;5123722;27;20107;-45
2022/06/21 06:56:24;;;;;;;10.23;2.20;;;17.10;69.70;;;;;;5132723;27;20023;-48
2022/06/21 06:59:04;;;;;;;9.30;2.70;;;17.10;70.80;;;;;;5117156;27;20051;-46
2022/06/21 07:02:01;;;;;;;4.35;1.70;;;17.20;69.60;;;;;;5105772;27;20027;-43
2022/06/21 07:04:36;;;;;;;6.60;2.53;;;17.20;68.80;;;;;;5114913;27;20030;-46
2022/06/21 07:07:17;;;;;;;6.85;2.35;;;17.20;69.80;;;;;;5119689;27;20023;-45
2022/06/21 07:09:51;;;;;;;7.07;2.78;;;17.50;70.20;;;;;;5128579;27;20043;-44
2022/06/21 07:12:27;;;;;;;5.63;1.65;;;17.90;67.80;;;;;;5090452;28;20114;-47
2022/06/21 07:14:54;;;;;;;3.63;1.38;;;18.30;66.40;;;;;;5094129;28;20039;-46
2022/06/21 07:17:39;;;;;;;5.55;2.00;;;18.70;65.20;;;;;;5112075;28;20028;-47
2022/06/21 07:20:18;;;;;;;7.35;1.75;;;19.00;63.30;;;;;;5111358;28;20386;-47
2022/06/21 07:22:47;;;;;;;4.85;1.85;;;19.70;64.60;;;;;;5094180;28;20039;-46
2022/06/21 07:25:33;;;;;;;8.57;1.92;;;20.10;62.40;;;;;;5125259;27;20031;-46
2022/06/21 07:28:36;;;;;;;10.48;2.63;;;20.10;60.80;;;;;;5132194;27;20525;-46
2022/06/21 07:31:22;;;;;;;22.35;4.30;;;19.00;62.40;;;;;;5101521;28;20074;-45
2022/06/21 07:33:58;;;;;;;18.00;4.40;;;18.10;65.40;;;;;;5111589;27;20028;-45
2022/06/21 07:36:43;;;;;;;11.20;2.85;;;17.50;67.20;;;;;;5110997;28;20042;-44
2022/06/21 07:39:25;;;;;;;4.65;2.03;;;17.40;68.00;;;;;;5114515;27;20027;-45
2022/06/21 07:41:57;;;;;;;6.53;1.60;;;17.90;67.30;;;;;;5111780;28;20016;-46
2022/06/21 07:44:46;;;;;;;7.80;2.47;;;18.10;66.10;;;;;;5111146;28;20766;-48
2022/06/21 07:47:38;;;;;;;6.70;2.72;;;18.70;66.30;;;;;;5111667;28;20024;-45
2022/06/21 07:50:33;;;;;;;7.10;1.83;;;18.80;64.90;;;;;;5111272;27;20035;-45
2022/06/21 07:53:11;;;;;;;9.82;2.20;;;18.50;65.10;;;;;;5111052;27;20422;-45
2022/06/21 07:55:45;;;;;;;5.82;1.65;;;18.00;65.80;;;;;;5111577;28;20329;-46
2022/06/21 07:58:41;;;;;;;5.82;1.80;;;17.80;67.20;;;;;;5110663;27;20122;-46
2022/06/21 08:07:23;;;;;;;8.10;2.05;;;20.00;61.60;;;;;;5111348;27;20027;-46
2022/06/21 08:10:07;;;;;;;7.00;2.00;;;19.40;62.00;;;;;;5110412;28;20032;-45
2022/06/21 08:12:34;;;;;;;4.47;2.08;;;18.50;64.10;;;;;;5110909;28;20031;-47
2022/06/21 08:15:01;;;;;;;3.55;1.73;;;18.20;65.30;;;;;;5128674;27;20084;-45
2022/06/21 08:17:51;;;;;;;4.70;2.22;;;18.20;66.60;;;;;;5113070;27;20069;-48
2022/06/21 08:20:31;;;;;;;6.75;2.40;;;19.40;66.10;;;;;;5110849;28;20031;-45
2022/06/21 08:23:19;;;;;;;5.32;2.20;;;20.60;61.80;;;;;;5111282;27;20015;-45
2022/06/21 08:25:47;;;;;;;6.13;2.00;;;20.10;60.10;;;;;;5111077;27;20348;-45
2022/06/21 08:28:19;;;;;;;9.05;2.30;;;19.40;61.10;;;;;;5113253;27;20077;-45
2022/06/21 08:30:56;;;;;;;9.57;1.90;;;18.60;64.30;;;;;;5129403;27;20019;-48
2022/06/21 08:33:54;;;;;;;7.70;2.10;;;18.60;64.10;;;;;;5116206;27;20039;-45
2022/06/21 08:37:06;;;;;;;4.38;1.48;;;18.80;62.70;;;;;;5121083;27;20477;-48
2022/06/21 08:39:59;;;;;;;10.68;1.95;;;18.90;63.80;;;;;;5110831;28;20032;-45
2022/06/21 08:42:52;;;;;;;4.68;1.63;;;20.10;63.10;;;;;;5110436;27;20432;-45
2022/06/21 08:45:55;;;;;;;5.53;2.00;;;20.10;60.60;;;;;;5092199;28;20609;-45
2022/06/21 08:48:58;;;;;;;4.10;1.88;;;19.90;61.90;;;;;;5116053;27;20102;-45
2022/06/21 08:52:06;;;;;;;8.57;2.75;;;19.40;61.90;;;;;;5110219;28;20031;-46
2022/06/21 08:55:09;;;;;;;7.70;2.88;;;18.70;63.10;;;;;;5107675;27;20051;-49
2022/06/21 08:58:04;;;;;;;6.28;2.55;;;18.40;64.40;;;;;;5130184;27;20023;-49
2022/06/21 09:00:52;;;;;;;5.30;2.28;;;18.60;65.10;;;;;;5091984;28;20039;-46
2022/06/21 09:03:46;;;;;;;4.13;2.05;;;19.60;66.00;;;;;;5112514;28;20027;-46
2022/06/21 09:06:58;;;;;;;5.50;1.80;;;20.70;62.40;;;;;;5118470;27;20052;-46
2022/06/21 09:09:54;;;;;;;4.28;1.58;;;22.00;59.90;;;;;;5104486;28;20039;-46
2022/06/21 09:12:37;;;;;;;7.35;2.92;;;23.20;56.00;;;;;;5091719;28;20168;-45
2022/06/21 09:15:46;;;;;;;5.85;2.08;;;23.10;53.40;;;;;;5120544;27;20041;-47
2022/06/21 09:18:27;;;;;;;6.22;1.95;;;23.00;53.50;;;;;;5128486;27;20046;-46
2022/06/21 09:21:14;;;;;;;7.63;2.92;;;21.40;55.60;;;;;;5128838;27;20023;-46
2022/06/21 09:23:50;;;;;;;6.47;2.75;;;20.40;58.50;;;;;;5106950;28;20024;-46
2022/06/21 09:26:49;;;;;;;10.70;3.13;;;19.80;60.70;;;;;;5091717;28;20016;-46
2022/06/21 09:29:43;;;;;;;8.13;3.28;;;19.90;62.40;;;;;;5116948;27;20022;-45
2022/06/21 09:32:47;;;;;;;4.78;2.03;;;19.90;61.90;;;;;;5112051;27;20026;-48
2022/06/21 09:35:52;;;;;;;5.18;1.80;;;20.50;61.30;;;;;;5116595;27;20023;-46
2022/06/21 09:38:42;;;;;;;7.13;1.60;;;21.40;61.00;;;;;;5105847;28;20036;-48
2022/06/21 09:41:16;;;;;;;4.30;1.55;;;22.10;56.30;;;;;;5060317;28;20047;-46
2022/06/21 09:44:02;;;;;;;5.75;2.35;;;21.50;55.80;;;;;;5109797;28;20031;-47
2022/06/21 09:46:54;;;;;;;5.38;2.28;;;21.00;57.80;;;;;;5108727;28;20034;-46
2022/06/21 09:49:51;;;;;;;6.22;2.15;;;20.90;56.40;;;;;;5112650;27;20023;-46
2022/06/21 09:53:03;;;;;;;4.68;1.83;;;20.90;58.50;;;;;;5065380;28;20130;-48
2022/06/21 09:55:51;;;;;;;5.28;1.98;;;21.70;57.30;;;;;;5065086;28;20044;-46
2022/06/21 09:58:29;;;;;;;6.63;1.75;;;22.20;56.10;;;;;;5113321;27;20088;-49
2022/06/21 10:01:20;;;;;;;4.70;1.70;;;23.00;55.60;;;;;;5114175;27;20051;-47
2022/06/21 10:04:11;;;;;;;5.60;2.00;;;23.60;54.70;;;;;;5097186;27;20023;-49
2022/06/21 10:07:00;;;;;;;11.27;2.28;;;23.20;51.60;;;;;;5119120;27;20028;-52
2022/06/21 10:10:02;;;;;;;4.63;2.17;;;23.50;51.70;;;;;;5113625;28;20076;-46
2022/06/21 10:13:06;;;;;;;4.65;1.63;;;23.30;50.60;;;;;;5113293;27;20048;-49
2022/06/21 10:15:54;;;;;;;6.43;1.88;;;23.10;50.50;;;;;;5133998;27;20042;-46
2022/06/21 10:18:47;;;;;;;4.97;1.60;;;22.40;53.80;;;;;;5103177;28;20466;-48
2022/06/21 10:21:51;;;;;;;5.72;1.40;;;23.10;54.20;;;;;;5095058;28;20027;-46
2022/06/21 10:24:47;;;;;;;5.53;1.67;;;23.20;52.60;;;;;;5112878;27;20024;-49
2022/06/21 10:27:24;;;;;;;4.18;1.50;;;23.20;51.90;;;;;;5112740;27;20352;-49
2022/06/21 10:30:14;;;;;;;4.70;2.05;;;23.30;54.50;;;;;;5113054;28;20031;-46
2022/06/21 10:33:02;;;;;;;4.35;2.00;;;22.90;54.30;;;;;;5066272;28;20039;-46
2022/06/21 10:36:08;;;;;;;5.55;1.70;;;23.10;53.40;;;;;;5131737;27;20034;-46
2022/06/21 10:39:01;;;;;;;5.47;2.05;;;23.20;52.60;;;;;;5115890;27;20464;-47
2022/06/21 10:44:44;;;;;;;4.63;1.80;;;21.70;55.40;;;;;;5112753;28;20057;-45
2022/06/21 10:47:22;;;;;;;5.45;1.60;;;21.40;56.50;;;;;;5126885;27;20023;-46
2022/06/21 10:50:10;;;;;;;13.40;2.70;;;21.30;59.30;;;;;;5114801;27;20031;-46
2022/06/21 10:52:54;;;;;;;5.05;1.90;;;21.40;58.40;;;;;;5095028;28;20039;-46
2022/06/21 10:55:36;;;;;;;3.20;1.52;;;21.10;57.10;;;;;;5074141;28;20521;-46
2022/06/21 10:58:40;;;;;;;3.92;2.08;;;21.20;58.10;;;;;;5075506;28;20055;-46
2022/06/21 11:01:24;;;;;;;5.75;1.65;;;21.90;60.00;;;;;;5101867;28;20460;-47
2022/06/21 11:04:32;;;;;;;5.53;2.08;;;22.40;57.30;;;;;;5091366;28;20092;-46
2022/06/21 11:07:34;;;;;;;5.18;2.08;;;22.90;54.40;;;;;;5027407;28;20055;-46
2022/06/21 11:10:24;;;;;;;5.30;1.67;;;23.10;56.30;;;;;;5105904;28;20118;-46
2022/06/21 11:13:03;;;;;;;4.57;1.70;;;22.50;58.50;;;;;;5093853;28;20336;-46
2022/06/21 11:15:42;;;;;;;;;;;22.00;58.10;;;;;;5105423;28;20098;-47
2022/06/21 11:18:26;;;;;;;11.50;2.57;;;21.50;58.00;;;;;;5099157;28;19970;-46
2022/06/21 11:21:22;;;;;;;9.05;1.88;;;21.20;59.30;;;;;;5099761;28;20102;-46
2022/06/21 11:24:23;;;;;;;9.90;2.20;;;20.70;62.00;;;;;;5099960;28;20354;-45
2022/06/21 11:27:10;;;;;;;6.30;2.10;;;20.30;64.10;;;;;;5093774;28;20460;-45
2022/06/21 11:30:21;;;;;;;4.75;1.98;;;19.60;65.10;;;;;;5091564;28;20123;-46
2022/06/21 11:33:25;;;;;;;6.80;2.47;;;19.10;67.90;;;;;;5063260;28;20032;-47
2022/06/21 11:36:18;;;;;;;10.30;2.92;;;18.90;67.90;;;;;;5093447;28;20027;-46
2022/06/21 11:38:46;;;;;;;10.13;2.05;;;18.80;68.00;;;;;;5099283;28;20020;-45
2022/06/21 11:44:42;;;;;;;8.60;2.35;;;19.20;70.90;;;;;;5090683;28;20093;-46
2022/06/21 11:47:19;;;;;;;5.97;2.20;;;19.90;69.30;;;;;;5090092;28;20033;-46
2022/06/21 11:49:57;;;;;;;5.47;1.77;;;20.00;67.10;;;;;;5091324;28;20028;-45
2022/06/21 11:52:33;;;;;;;7.38;2.88;;;19.90;66.30;;;;;;5088886;28;20028;-46
2022/06/21 11:55:35;;;;;;;8.00;2.38;;;19.70;66.50;;;;;;5109403;28;20085;-45
2022/06/21 11:58:25;;;;;;;5.60;2.00;;;19.50;67.90;;;;;;5114429;27;20110;-50
2022/06/21 12:01:16;;;;;;;8.90;2.33;;;19.30;68.50;;;;;;5128800;27;20184;-45
2022/06/21 12:03:52;;;;;;;6.97;2.47;;;19.40;70.10;;;;;;5108945;27;20039;-50
2022/06/21 12:06:29;;;;;;;9.93;2.17;;;19.90;70.30;;;;;;5110512;28;20519;-46
2022/06/21 12:09:19;;;;;;;4.93;1.80;;;20.20;70.00;;;;;;5110978;28;20028;-45
2022/06/21 12:12:18;;;;;;;10.65;2.95;;;20.40;65.30;;;;;;5109743;27;20023;-46
2022/06/21 12:15:09;;;;;;;6.00;2.28;;;20.50;67.70;;;;;;5110469;27;20098;-46
2022/06/21 12:17:57;;;;;;;9.70;2.25;;;20.50;68.50;;;;;;5092733;28;20314;-46
2022/06/21 12:20:34;;;;;;;3.97;1.67;;;20.50;68.20;;;;;;5092975;28;20427;-46
2022/06/21 12:23:54;;;;;;;25.83;3.83;;;20.60;68.40;;;;;;5110729;28;20039;-46
2022/06/21 12:26:24;;;;;;;5.80;1.60;;;20.70;67.30;;;;;;5104480;28;20046;-45
2022/06/21 12:28:59;;;;;;;7.40;2.17;;;20.50;64.50;;;;;;5112845;27;20068;-46
2022/06/21 12:31:32;;;;;;;5.93;1.95;;;20.60;66.90;;;;;;5111463;27;20035;-46
2022/06/21 12:34:23;;;;;;;6.18;1.85;;;20.40;67.00;;;;;;5123828;27;20020;-45
2022/06/21 12:36:55;;;;;;;10.25;2.03;;;20.50;66.10;;;;;;5110443;28;20437;-46
2022/06/21 12:39:33;;;;;;;8.07;1.83;;;20.30;68.40;;;;;;5091931;28;20102;-45
2022/06/21 12:42:14;;;;;;;5.93;1.92;;;20.10;68.00;;;;;;5122172;27;20031;-46
2022/06/21 12:45:07;;;;;;;18.05;2.85;;;20.10;68.50;;;;;;5118948;27;20058;-45
2022/06/21 12:48:12;;;;;;;5.68;2.00;;;20.20;69.20;;;;;;5110432;28;20032;-48
2022/06/21 12:51:10;;;;;;;7.97;1.85;;;20.40;66.30;;;;;;5110250;28;20043;-45
2022/06/21 12:53:47;;;;;;;10.43;2.83;;;20.40;67.10;;;;;;5109523;27;20441;-46
2022/06/21 12:56:35;;;;;;;4.95;1.77;;;20.40;67.50;;;;;;5110510;27;20032;-48
2022/06/21 12:59:12;;;;;;;5.53;2.13;;;20.30;67.80;;;;;;5120130;27;20077;-47
2022/06/21 13:02:00;;;;;;;5.60;1.73;;;20.10;65.50;;;;;;5130828;27;20438;-48
2022/06/21 13:04:44;;;;;;;10.55;2.10;;;19.90;68.00;;;;;;5100743;28;20027;-47
2022/06/21 13:07:41;;;;;;;5.18;2.03;;;19.90;68.30;;;;;;5127420;27;20019;-45
2022/06/21 13:10:37;;;;;;;5.72;1.92;;;19.90;67.20;;;;;;5109667;27;20051;-49
2022/06/21 13:13:27;;;;;;;7.82;2.58;;;19.80;69.40;;;;;;5110641;28;20031;-46
2022/06/21 13:15:56;;;;;;;;;;;19.80;69.80;;;;;;5110355;28;20486;-47
2022/06/21 13:19:00;;;;;;;5.80;2.13;;;19.80;69.10;;;;;;5109248;28;19915;-46
2022/06/21 13:21:32;;;;;;;5.72;2.50;;;19.70;69.30;;;;;;5091542;28;20429;-49
2022/06/21 13:24:22;;;;;;;7.28;2.55;;;19.70;69.10;;;;;;5126119;27;20027;-45
2022/06/21 13:27:06;;;;;;;16.80;2.88;;;19.80;67.70;;;;;;5130386;27;20027;-46
2022/06/21 13:30:10;;;;;;;10.38;3.20;;;19.90;69.30;;;;;;5112315;27;20062;-48
2022/06/21 13:32:48;;;;;;;7.70;2.20;;;19.70;68.00;;;;;;5092247;28;20019;-45
2022/06/21 13:35:42;;;;;;;6.80;2.38;;;19.60;68.10;;;;;;5110693;28;20035;-45
2022/06/21 13:38:43;;;;;;;6.25;3.05;;;19.60;69.00;;;;;;5091469;28;20032;-45
2022/06/21 13:44:32;;;;;;;6.75;2.85;;;19.60;71.00;;;;;;5109257;28;20503;-45
2022/06/21 13:47:24;;;;;;;6.32;2.17;;;19.60;68.30;;;;;;5091881;28;20032;-46
2022/06/21 13:50:17;;;;;;;15.77;2.78;;;19.40;69.40;;;;;;5109531;28;20100;-45
2022/06/21 13:52:57;;;;;;;7.28;2.95;;;19.40;70.00;;;;;;5127655;28;20023;-48
2022/06/21 13:56:01;;;;;;;4.30;2.38;;;19.40;70.30;;;;;;5077651;28;20389;-46
2022/06/21 13:58:41;;;;;;;10.50;2.47;;;19.50;69.90;;;;;;5088741;28;20047;-47
2022/06/21 14:01:44;;;;;;;6.00;2.13;;;19.40;71.20;;;;;;5075328;28;20031;-47
2022/06/21 14:04:46;;;;;;;5.35;2.13;;;19.40;68.90;;;;;;5089531;28;20028;-45
2022/06/21 14:07:48;;;;;;;7.80;1.80;;;19.40;70.80;;;;;;5108268;28;20061;-45
2022/06/21 14:10:37;;;;;;;8.15;2.85;;;19.40;68.90;;;;;;5088359;28;20368;-45
2022/06/21 14:13:37;;;;;;;13.27;2.90;;;19.20;69.20;;;;;;5088945;28;20371;-45
2022/06/21 14:16:34;;;;;;;5.45;2.28;;;19.20;69.60;;;;;;5092574;28;20109;-47
2022/06/21 14:19:16;;;;;;;8.82;1.98;;;19.10;69.40;;;;;;5091103;28;20032;-46